Moreland, Idaho
Current Conditions -  °F | °C
As of 7:53 AM on Friday 28 Nov 2014 (Local Time) from KPIH Reporting Station
Clear Clear  
Wind Chill: 38°   Ceiling: Unl
Heat Index: 41°   Visibility: 10mi
Dew Point: 27°   Wind: 5mph
Humidity: 57%   Direction: NA
Pressure: 29.92"   Gusts: NA
Location:  43.22°N, 112.44°W
Report Text: KPIH 281453Z VRB04KT 10SM CLR 05/M03 A2992 RMK AO2 SLP122 T00501028 56010
Loading
Personal Weather Stations






























Interactive Weather Map New forecast layout! Learn more

10-Day Weather Forecast

Advertisements
Track Severe Weather on mobile